createdAt,value
2022-11-27T00:01:10.699Z,19.15
2022-11-27T00:03:37.147Z,19.11
2022-11-27T04:07:57.755Z,18.85
2022-11-27T04:10:24.140Z,18.83
2022-11-27T04:12:50.528Z,18.82
2022-11-27T04:15:16.957Z,18.87
2022-11-27T04:17:43.334Z,18.86
2022-11-27T04:20:09.714Z,18.85
2022-11-27T04:22:36.094Z,18.85
2022-11-27T04:25:02.486Z,18.82
2022-11-27T04:27:28.872Z,18.85
2022-11-27T04:29:55.250Z,18.82
2022-11-27T04:32:21.611Z,18.86
2022-11-27T04:34:47.998Z,18.88
2022-11-27T04:37:14.386Z,18.84
2022-11-27T04:39:40.773Z,18.84
2022-11-27T04:42:07.160Z,18.86
2022-11-27T04:44:33.541Z,18.90
2022-11-27T04:46:59.993Z,18.84
2022-11-27T04:49:26.418Z,18.85
2022-11-27T04:51:52.807Z,18.85
2022-11-27T04:54:19.201Z,18.86
2022-11-27T04:56:45.582Z,18.87
2022-11-27T04:59:11.951Z,18.84
2022-11-27T05:01:38.322Z,18.82
2022-11-27T05:04:04.709Z,18.84
2022-11-27T05:06:31.095Z,18.83
2022-11-27T05:08:57.454Z,18.86
2022-11-27T05:11:23.846Z,18.87
2022-11-27T05:13:50.211Z,18.86
2022-11-27T05:16:16.665Z,18.89
2022-11-27T05:18:43.090Z,18.87
2022-11-27T05:21:09.458Z,18.87
2022-11-27T05:23:35.825Z,18.90
2022-11-27T05:26:02.205Z,18.86
2022-11-27T05:28:28.583Z,18.90
2022-11-27T05:30:55.097Z,18.86
2022-11-27T05:33:21.529Z,18.87
2022-11-27T05:35:47.890Z,18.83
2022-11-27T05:38:14.257Z,18.88
2022-11-27T05:40:40.636Z,18.87
2022-11-27T05:43:07.031Z,18.90
2022-11-27T05:45:33.431Z,18.90
2022-11-27T05:47:59.803Z,18.88
2022-11-27T05:50:26.166Z,18.88
2022-11-27T05:52:52.550Z,18.89
2022-11-27T05:55:18.922Z,18.91
2022-11-27T05:57:45.305Z,18.93
2022-11-27T06:00:11.677Z,18.88
2022-11-27T06:02:38.139Z,18.95
2022-11-27T06:05:04.625Z,18.91
2022-11-27T06:07:31.103Z,18.91
2022-11-27T06:09:57.554Z,18.90
2022-11-27T06:12:23.936Z,18.90
2022-11-27T06:14:50.311Z,18.94
2022-11-27T06:17:16.673Z,18.91
2022-11-27T06:19:43.034Z,18.96
2022-11-27T06:22:09.402Z,18.93
2022-11-27T06:24:35.759Z,18.95
2022-11-27T06:27:02.129Z,18.97
2022-11-27T06:29:28.581Z,18.98
2022-11-27T06:31:55.033Z,18.98
2022-11-27T06:34:21.445Z,18.96
2022-11-27T06:36:47.818Z,18.95
2022-11-27T06:39:14.170Z,19.01
2022-11-27T06:41:40.548Z,19.02
2022-11-27T06:44:06.931Z,18.94
2022-11-27T06:46:33.305Z,18.97
2022-11-27T06:48:59.671Z,19.02
2022-11-27T06:51:26.027Z,18.98
2022-11-27T06:53:52.396Z,18.98
2022-11-27T06:56:18.762Z,19.01
2022-11-27T06:58:45.145Z,19.02
2022-11-27T07:01:11.599Z,19.02
2022-11-27T07:03:38.020Z,19.07
2022-11-27T07:06:04.386Z,19.04
2022-11-27T07:08:30.743Z,18.95
2022-11-27T07:10:57.116Z,19.02
2022-11-27T07:13:23.498Z,19.02
2022-11-27T07:15:49.870Z,19.09
2022-11-27T07:18:16.239Z,19.03
2022-11-27T07:20:42.610Z,19.06
2022-11-27T07:23:08.982Z,19.04
2022-11-27T07:25:35.359Z,19.01
2022-11-27T07:28:01.744Z,19.04
2022-11-27T07:30:28.206Z,19.03
2022-11-27T07:32:54.635Z,19.07
2022-11-27T07:35:21.014Z,19.04
2022-11-27T07:37:47.400Z,19.06
2022-11-27T07:40:14.996Z,19.06
2022-11-27T07:42:41.494Z,19.08
2022-11-27T07:45:07.861Z,19.07
2022-11-27T07:47:34.236Z,19.06
2022-11-27T07:50:00.647Z,19.10
2022-11-27T07:52:27.030Z,19.09
2022-11-27T07:54:53.399Z,19.11
2022-11-27T07:57:19.750Z,19.13
2022-11-27T07:59:47.602Z,19.09
2022-11-27T08:02:14.238Z,19.09
2022-11-27T08:04:40.919Z,19.14
2022-11-27T08:07:07.496Z,19.16
2022-11-27T08:09:33.883Z,19.14
2022-11-27T08:12:00.250Z,19.18
2022-11-27T08:14:26.622Z,19.16
2022-11-27T08:16:53.047Z,19.16
2022-11-27T08:19:19.474Z,19.12
2022-11-27T08:21:45.860Z,19.13
2022-11-27T08:24:12.235Z,19.18
2022-11-27T08:26:38.621Z,19.14
2022-11-27T08:29:04.996Z,19.13
2022-11-27T08:31:31.415Z,19.15
2022-11-27T08:33:57.914Z,19.15
2022-11-27T08:36:24.267Z,19.15
2022-11-27T08:38:50.640Z,19.14
2022-11-27T08:41:17.016Z,19.15
2022-11-27T08:43:43.378Z,19.15
2022-11-27T08:46:09.784Z,19.12
2022-11-27T08:48:36.214Z,19.13
2022-11-27T08:51:02.582Z,19.17
2022-11-27T08:53:28.977Z,19.14
2022-11-27T08:55:55.350Z,19.17
2022-11-27T08:58:21.710Z,19.17
2022-11-27T09:00:48.149Z,19.18
2022-11-27T09:03:14.540Z,19.14
2022-11-27T09:05:40.913Z,19.15
2022-11-27T09:08:07.290Z,19.18
2022-11-27T09:10:33.678Z,19.18
2022-11-27T09:13:00.039Z,19.17
2022-11-27T09:15:26.408Z,19.19
2022-11-27T09:17:52.781Z,19.25
2022-11-27T09:20:19.146Z,19.30
2022-11-27T09:22:45.535Z,19.34
2022-11-27T09:25:11.917Z,19.44
2022-11-27T09:27:38.316Z,19.46
2022-11-27T09:30:04.682Z,19.52
2022-11-27T09:32:31.058Z,19.46
2022-11-27T09:34:57.465Z,19.45
2022-11-27T09:37:23.855Z,19.42
2022-11-27T09:39:50.219Z,19.42
2022-11-27T09:42:16.600Z,19.40
2022-11-27T09:44:43.268Z,19.37
2022-11-27T09:47:09.893Z,19.40
2022-11-27T09:49:36.287Z,19.37
2022-11-27T09:52:02.657Z,19.33
2022-11-27T09:54:29.026Z,19.37
2022-11-27T09:56:55.417Z,19.38
2022-11-27T09:59:21.802Z,19.40
2022-11-27T10:01:51.004Z,19.41
2022-11-27T10:04:17.736Z,19.41
2022-11-27T10:06:44.124Z,19.41
2022-11-27T10:09:10.494Z,19.39
2022-11-27T10:11:36.880Z,19.41
2022-11-27T10:14:03.266Z,19.41
2022-11-27T10:16:29.689Z,19.42
2022-11-27T10:18:56.099Z,19.44
2022-11-27T10:21:22.485Z,19.44
2022-11-27T10:23:48.867Z,19.45
2022-11-27T10:26:15.254Z,19.44
2022-11-27T10:28:41.652Z,19.46
2022-11-27T10:31:08.033Z,19.46
2022-11-27T10:33:34.410Z,19.48
2022-11-27T10:36:00.785Z,19.44
2022-11-27T10:38:27.190Z,19.48
2022-11-27T10:40:53.566Z,19.51
2022-11-27T10:43:19.965Z,19.49
2022-11-27T10:45:46.376Z,19.53
2022-11-27T10:48:12.818Z,19.53
2022-11-27T10:50:39.216Z,19.51
2022-11-27T10:53:05.588Z,19.53
2022-11-27T10:55:31.961Z,19.52
2022-11-27T10:57:58.362Z,19.52
2022-11-27T11:00:24.762Z,19.54
2022-11-27T11:02:51.141Z,19.57
2022-11-27T11:05:37.219Z,19.44
2022-11-27T11:08:03.928Z,19.40
2022-11-27T11:10:30.350Z,19.47
2022-11-27T11:12:56.723Z,19.45
2022-11-27T11:15:23.103Z,19.47
2022-11-27T11:17:49.462Z,19.46
2022-11-27T11:20:15.838Z,19.46
2022-11-27T11:22:42.227Z,19.47
2022-11-27T11:25:08.602Z,19.47
2022-11-27T11:27:34.992Z,19.48
2022-11-27T11:30:01.397Z,19.49
2022-11-27T11:32:27.787Z,19.50
2022-11-27T11:35:00.403Z,19.52
2022-11-27T11:37:27.426Z,19.53
2022-11-27T11:39:53.803Z,19.56
2022-11-27T11:42:20.172Z,19.54
2022-11-27T11:44:46.563Z,19.52
2022-11-27T11:47:12.955Z,19.54
2022-11-27T11:49:39.338Z,19.52
2022-11-27T11:52:05.734Z,19.57
2022-11-27T11:54:32.118Z,19.59
2022-11-27T11:56:58.494Z,19.57
2022-11-27T11:59:24.862Z,19.59
2022-11-27T12:01:51.276Z,19.55
2022-11-27T12:04:17.761Z,19.56
2022-11-27T12:06:44.178Z,19.52
2022-11-27T12:09:10.557Z,19.53
2022-11-27T12:11:36.935Z,19.54
2022-11-27T12:14:03.319Z,19.57
2022-11-27T12:16:29.790Z,19.58
2022-11-27T12:18:56.177Z,19.59
2022-11-27T12:21:22.555Z,19.59
2022-11-27T12:23:48.938Z,19.57
2022-11-27T12:26:15.337Z,19.60
2022-11-27T12:28:41.735Z,19.61
2022-11-27T12:31:08.155Z,19.63
2022-11-27T12:33:34.553Z,19.63
2022-11-27T12:36:00.948Z,19.64
2022-11-27T12:38:27.361Z,19.65
2022-11-27T12:40:53.746Z,19.66
2022-11-27T12:43:20.140Z,19.67
2022-11-27T12:45:46.573Z,19.64
2022-11-27T12:48:13.166Z,19.66
2022-11-27T12:50:39.535Z,19.65
2022-11-27T12:53:05.959Z,19.64
2022-11-27T12:55:32.326Z,19.66
2022-11-27T12:57:58.746Z,19.65
2022-11-27T13:00:25.175Z,19.66
2022-11-27T13:02:51.606Z,19.61
2022-11-27T13:05:18.030Z,19.57
2022-11-27T13:07:44.633Z,19.57
2022-11-27T13:10:11.059Z,19.58
2022-11-27T13:12:37.422Z,19.58
2022-11-27T13:15:03.787Z,19.58
2022-11-27T13:17:30.184Z,19.60
2022-11-27T13:19:56.570Z,19.58
2022-11-27T13:22:22.957Z,19.59
2022-11-27T13:24:49.346Z,19.60
2022-11-27T13:27:15.726Z,19.58
2022-11-27T13:29:42.105Z,19.56
2022-11-27T13:32:08.507Z,19.55
2022-11-27T13:34:34.887Z,19.53
2022-11-27T13:37:01.258Z,19.55
2022-11-27T13:39:27.650Z,19.55
2022-11-27T13:41:54.046Z,19.50
2022-11-27T13:44:20.431Z,19.49
2022-11-27T13:46:46.818Z,19.49
2022-11-27T13:49:13.217Z,19.50
2022-11-27T13:51:39.595Z,19.50
2022-11-27T13:54:05.965Z,19.49
2022-11-27T13:56:32.346Z,19.52
2022-11-27T13:58:58.723Z,19.48
2022-11-27T14:01:25.183Z,19.48
2022-11-27T14:03:51.627Z,19.49
2022-11-27T14:06:17.994Z,19.52
2022-11-27T14:08:44.366Z,19.49
2022-11-27T14:11:10.743Z,19.48
2022-11-27T14:13:37.119Z,19.46
2022-11-27T14:16:03.579Z,19.49
2022-11-27T14:18:30.024Z,19.46
2022-11-27T14:20:56.423Z,19.46
2022-11-27T14:23:22.810Z,19.46
2022-11-27T14:25:49.180Z,19.48
2022-11-27T14:28:15.586Z,19.45
2022-11-27T14:30:41.966Z,19.44
2022-11-27T14:33:08.337Z,19.43
2022-11-27T14:35:34.729Z,19.43
2022-11-27T14:38:01.104Z,19.45
2022-11-27T14:40:27.498Z,19.46
2022-11-27T14:42:53.882Z,19.42
2022-11-27T14:45:20.280Z,19.43
2022-11-27T14:47:46.654Z,19.45
2022-11-27T14:50:13.047Z,19.43
2022-11-27T14:52:39.431Z,19.43
2022-11-27T14:55:05.811Z,19.44
2022-11-27T14:57:32.217Z,19.43
2022-11-27T14:59:58.615Z,19.46
2022-11-27T15:02:29.133Z,19.43
2022-11-27T15:04:55.946Z,19.41
2022-11-27T15:07:22.391Z,19.42
2022-11-27T15:09:49.121Z,19.41
2022-11-27T15:12:15.690Z,19.39
2022-11-27T15:14:42.059Z,19.37
2022-11-27T15:17:08.469Z,19.38
2022-11-27T15:19:34.838Z,19.35
2022-11-27T15:22:01.249Z,19.35
2022-11-27T15:24:27.617Z,19.38
2022-11-27T15:26:53.987Z,19.37
2022-11-27T15:29:20.371Z,19.35
2022-11-27T15:31:46.939Z,19.38
2022-11-27T15:34:13.400Z,19.35
2022-11-27T15:36:39.804Z,19.32
2022-11-27T15:39:06.205Z,19.30
2022-11-27T15:41:32.605Z,19.34
2022-11-27T15:43:58.970Z,19.31
2022-11-27T15:46:25.362Z,19.31
2022-11-27T15:48:51.750Z,19.33
2022-11-27T15:51:18.128Z,19.32
2022-11-27T15:53:44.494Z,19.33
2022-11-27T15:56:10.880Z,19.35
2022-11-27T15:58:37.274Z,19.31
2022-11-27T16:01:03.694Z,19.36
2022-11-27T16:03:30.106Z,19.33
2022-11-27T16:05:56.485Z,19.33
2022-11-27T16:08:22.866Z,19.29
2022-11-27T16:10:49.238Z,19.28
2022-11-27T16:13:15.603Z,19.30
2022-11-27T16:15:41.987Z,19.28
2022-11-27T16:18:08.358Z,19.26
2022-11-27T16:20:34.730Z,19.28
2022-11-27T16:23:01.126Z,19.25
2022-11-27T16:25:27.514Z,19.26
2022-11-27T16:27:59.419Z,19.27
2022-11-27T16:30:28.758Z,19.26
2022-11-27T16:32:55.156Z,19.26
2022-11-27T16:35:21.562Z,19.25
2022-11-27T16:37:47.981Z,19.28
2022-11-27T16:40:14.435Z,19.24
2022-11-27T16:42:40.832Z,19.29
2022-11-27T16:45:07.199Z,19.28
2022-11-27T16:47:34.066Z,19.26
2022-11-27T16:50:00.503Z,19.30
2022-11-27T16:52:26.871Z,19.29
2022-11-27T16:54:53.250Z,19.32
2022-11-27T16:57:19.628Z,19.32
2022-11-27T16:59:46.015Z,19.30
2022-11-27T17:02:12.449Z,19.26
2022-11-27T17:04:39.207Z,19.26
2022-11-27T17:07:05.881Z,19.25
2022-11-27T17:09:32.254Z,19.29
2022-11-27T17:11:58.658Z,19.24
2022-11-27T17:14:25.051Z,19.22
2022-11-27T17:16:51.468Z,19.19
2022-11-27T17:19:17.869Z,19.25
2022-11-27T17:21:44.243Z,19.22
2022-11-27T17:24:15.127Z,19.25
2022-11-27T17:26:42.082Z,19.20
2022-11-27T17:29:08.460Z,19.19
2022-11-27T17:31:34.893Z,19.20
2022-11-27T17:34:01.335Z,19.20
2022-11-27T17:36:28.117Z,19.18
2022-11-27T17:38:55.879Z,19.20
2022-11-27T17:41:22.274Z,19.20
2022-11-27T17:43:48.653Z,19.17
2022-11-27T17:46:15.096Z,19.19
2022-11-27T17:48:41.486Z,19.25
2022-11-27T17:51:07.897Z,19.27
2022-11-27T17:53:34.285Z,19.28
2022-11-27T17:56:00.682Z,19.25
2022-11-27T17:58:27.075Z,19.24
2022-11-27T18:00:53.491Z,19.22
2022-11-27T18:03:19.892Z,19.18
2022-11-27T18:05:46.269Z,19.18
2022-11-27T18:08:12.631Z,19.17
2022-11-27T18:10:39.003Z,19.21
2022-11-27T18:13:05.395Z,19.19
2022-11-27T18:15:31.770Z,19.20
2022-11-27T18:17:58.164Z,19.16
2022-11-27T18:20:24.540Z,19.20
2022-11-27T18:22:50.943Z,19.21
2022-11-27T18:25:17.312Z,19.20
2022-11-27T18:27:43.693Z,19.18
2022-11-27T18:30:10.072Z,19.19
2022-11-27T18:32:36.594Z,19.18
2022-11-27T18:35:02.991Z,19.14
2022-11-27T18:37:29.379Z,19.16
2022-11-27T18:39:55.747Z,19.17
2022-11-27T18:42:22.137Z,19.16
2022-11-27T18:44:48.510Z,19.18
2022-11-27T18:47:14.999Z,19.19
2022-11-27T18:49:41.637Z,19.19
2022-11-27T18:52:08.181Z,19.18
2022-11-27T18:54:34.570Z,19.16
2022-11-27T18:57:00.954Z,19.16
2022-11-27T18:59:27.323Z,19.18
2022-11-27T19:01:53.765Z,19.17
2022-11-27T19:04:20.214Z,19.16
2022-11-27T19:06:46.590Z,19.17
2022-11-27T19:09:12.954Z,19.15
2022-11-27T19:11:39.344Z,19.16
2022-11-27T19:14:05.723Z,19.17
2022-11-27T19:16:32.166Z,19.19
2022-11-27T19:18:58.583Z,19.18
2022-11-27T19:21:24.955Z,19.19
2022-11-27T19:23:51.349Z,19.16
2022-11-27T19:26:17.755Z,19.16
2022-11-27T19:28:44.133Z,19.14
2022-11-27T19:31:10.523Z,19.15
2022-11-27T19:33:36.915Z,19.14
2022-11-27T19:36:03.281Z,19.14
2022-11-27T19:38:29.646Z,19.11
2022-11-27T19:40:56.027Z,19.10
2022-11-27T19:43:22.411Z,19.07
2022-11-27T19:45:48.828Z,19.13
2022-11-27T19:48:20.008Z,19.13
2022-11-27T19:50:49.198Z,19.09
2022-11-27T19:53:15.577Z,19.11
2022-11-27T19:55:41.956Z,19.10
2022-11-27T19:58:08.333Z,19.11
2022-11-27T20:00:34.725Z,19.11
2022-11-27T20:03:01.100Z,19.07
2022-11-27T20:05:27.472Z,19.12
2022-11-27T20:07:53.907Z,19.12
2022-11-27T20:10:20.340Z,19.09
2022-11-27T20:12:46.819Z,19.10
2022-11-27T20:15:13.208Z,19.08
2022-11-27T20:17:39.592Z,19.09
2022-11-27T20:20:06.025Z,19.05
2022-11-27T20:22:32.390Z,19.04
2022-11-27T20:25:18.289Z,19.06
2022-11-27T20:27:45.102Z,19.10
2022-11-27T20:30:11.465Z,19.04
2022-11-27T20:32:37.854Z,19.05
2022-11-27T20:35:04.231Z,19.09
2022-11-27T20:37:30.626Z,19.07
2022-11-27T20:39:57.003Z,19.05
2022-11-27T20:42:23.389Z,19.06
2022-11-27T20:44:49.778Z,19.05
2022-11-27T20:47:16.152Z,19.07
2022-11-27T20:49:42.736Z,19.08
2022-11-27T20:52:09.258Z,19.10
2022-11-27T20:54:35.667Z,19.08
2022-11-27T20:57:02.042Z,19.07
2022-11-27T20:59:28.411Z,19.07
2022-11-27T21:01:54.829Z,19.07
2022-11-27T21:04:21.231Z,19.05
2022-11-27T21:06:47.611Z,19.05
2022-11-27T21:09:14.253Z,19.03
2022-11-27T21:11:40.699Z,19.07
2022-11-27T21:14:07.074Z,19.05
2022-11-27T21:16:33.513Z,19.04
2022-11-27T21:18:59.927Z,19.05
2022-11-27T21:21:26.295Z,19.05
2022-11-27T21:23:52.667Z,19.07
2022-11-27T21:26:19.083Z,19.06
2022-11-27T21:28:45.499Z,19.06
2022-11-27T21:31:11.868Z,19.05
2022-11-27T21:33:38.255Z,19.03
2022-11-27T21:36:04.640Z,19.04
2022-11-27T21:38:31.017Z,19.04
2022-11-27T21:40:57.414Z,19.02
2022-11-27T21:43:23.798Z,18.95
2022-11-27T21:45:50.197Z,18.98
2022-11-27T21:48:16.616Z,18.96
2022-11-27T21:50:43.010Z,18.91
2022-11-27T21:53:09.397Z,18.95
2022-11-27T21:55:35.795Z,18.95
2022-11-27T21:58:02.179Z,18.95
2022-11-27T22:00:28.542Z,19.01
2022-11-27T22:02:54.978Z,18.97
2022-11-27T22:05:21.372Z,18.98
2022-11-27T22:07:47.861Z,19.00
2022-11-27T22:10:14.283Z,18.98
2022-11-27T22:12:40.668Z,18.98
2022-11-27T22:15:07.048Z,19.07
2022-11-27T22:17:33.437Z,19.12
2022-11-27T22:19:59.811Z,19.17
2022-11-27T22:22:26.179Z,19.19
2022-11-27T22:24:52.563Z,19.22
2022-11-27T22:27:18.929Z,19.20
2022-11-27T22:29:45.318Z,19.20
2022-11-27T22:32:11.695Z,19.23
2022-11-27T22:34:38.065Z,19.18
2022-11-27T22:37:04.462Z,19.25
2022-11-27T22:39:30.827Z,19.22
2022-11-27T22:41:57.186Z,19.22
2022-11-27T22:44:23.574Z,19.24
2022-11-27T22:46:49.935Z,19.23
2022-11-27T22:49:16.306Z,19.25
2022-11-27T22:51:42.682Z,19.22
2022-11-27T22:54:09.047Z,19.20
2022-11-27T22:56:35.420Z,19.21
2022-11-27T22:59:30.516Z,19.22
2022-11-27T23:01:48.153Z,19.22
2022-11-27T23:04:14.525Z,19.19
2022-11-27T23:06:40.912Z,19.15
2022-11-27T23:09:07.291Z,19.15
2022-11-27T23:11:33.765Z,19.15
2022-11-27T23:14:00.130Z,19.13
2022-11-27T23:16:26.526Z,19.11
2022-11-27T23:18:52.916Z,19.09
2022-11-27T23:21:19.301Z,19.10
2022-11-27T23:23:45.694Z,19.06
2022-11-27T23:26:17.407Z,19.07
2022-11-27T23:28:44.391Z,19.08
2022-11-27T23:31:29.002Z,19.02
2022-11-27T23:33:56.119Z,19.07
2022-11-27T23:36:22.488Z,19.01
2022-11-27T23:38:48.873Z,19.02
2022-11-27T23:41:15.271Z,19.00
2022-11-27T23:43:41.650Z,18.99
2022-11-27T23:46:08.113Z,19.02
2022-11-27T23:48:34.567Z,19.02
2022-11-27T23:51:00.934Z,19.00
2022-11-27T23:53:27.299Z,19.00
2022-11-27T23:55:53.659Z,18.97
2022-11-27T23:58:20.042Z,19.00
